sensor_id;sensor_type;location;lat;lon;timestamp;pressure;altitude;pressure_sealevel;temperature;humidity
73981;BME280;62348;51.412;5.436;2022-09-09T00:00:38;100658.81;;;14.43;82.27
73981;BME280;62348;51.412;5.436;2022-09-09T00:03:12;100649.34;;;14.40;83.05
73981;BME280;62348;51.412;5.436;2022-09-09T00:08:21;100647.41;;;14.41;82.83
73981;BME280;62348;51.412;5.436;2022-09-09T00:10:58;100645.81;;;14.40;82.24
73981;BME280;62348;51.412;5.436;2022-09-09T00:13:36;100643.88;;;14.40;82.16
73981;BME280;62348;51.412;5.436;2022-09-09T00:16:15;100643.94;;;14.35;82.49
73981;BME280;62348;51.412;5.436;2022-09-09T00:19:10;100640.56;;;14.43;82.33
73981;BME280;62348;51.412;5.436;2022-09-09T00:21:49;100637.66;;;14.40;82.04
73981;BME280;62348;51.412;5.436;2022-09-09T00:24:28;100633.63;;;14.32;82.35
73981;BME280;62348;51.412;5.436;2022-09-09T00:27:38;100629.84;;;14.33;81.91
73981;BME280;62348;51.412;5.436;2022-09-09T00:30:32;100633.34;;;14.34;81.98
73981;BME280;62348;51.412;5.436;2022-09-09T00:33:01;100627.16;;;14.28;82.58
73981;BME280;62348;51.412;5.436;2022-09-09T00:35:38;100624.16;;;14.30;82.53
73981;BME280;62348;51.412;5.436;2022-09-09T00:38:18;100620.03;;;14.32;82.51
73981;BME280;62348;51.412;5.436;2022-09-09T00:40:53;100624.69;;;14.32;82.29
73981;BME280;62348;51.412;5.436;2022-09-09T00:54:58;100611.38;;;14.30;82.24
73981;BME280;62348;51.412;5.436;2022-09-09T00:57:32;100609.59;;;14.20;82.74
73981;BME280;62348;51.412;5.436;2022-09-09T01:00:29;100606.06;;;14.20;82.28
73981;BME280;62348;51.412;5.436;2022-09-09T01:11:21;100615.66;;;14.12;83.02
73981;BME280;62348;51.412;5.436;2022-09-09T01:13:53;100606.13;;;14.15;82.50
73981;BME280;62348;51.412;5.436;2022-09-09T01:16:25;100609.19;;;14.08;82.74
73981;BME280;62348;51.412;5.436;2022-09-09T01:18:53;100611.31;;;14.11;82.89
73981;BME280;62348;51.412;5.436;2022-09-09T01:21:39;100611.84;;;14.13;82.94
73981;BME280;62348;51.412;5.436;2022-09-09T01:26:46;100604.06;;;14.06;83.54
73981;BME280;62348;51.412;5.436;2022-09-09T01:29:14;100600.81;;;14.04;83.23
73981;BME280;62348;51.412;5.436;2022-09-09T01:34:16;100602.22;;;14.02;82.86
73981;BME280;62348;51.412;5.436;2022-09-09T01:36:58;100600.28;;;14.02;83.37
73981;BME280;62348;51.412;5.436;2022-09-09T01:39:26;100600.41;;;13.92;83.40
73981;BME280;62348;51.412;5.436;2022-09-09T01:41:52;100594.63;;;13.99;83.60
73981;BME280;62348;51.412;5.436;2022-09-09T01:44:18;100584.59;;;13.94;83.72
73981;BME280;62348;51.412;5.436;2022-09-09T01:46:44;100590.28;;;13.98;83.39
73981;BME280;62348;51.412;5.436;2022-09-09T01:49:09;100589.47;;;13.97;83.38
73981;BME280;62348;51.412;5.436;2022-09-09T01:51:38;100585.16;;;13.96;83.32
73981;BME280;62348;51.412;5.436;2022-09-09T01:54:05;100591.91;;;13.99;83.25
73981;BME280;62348;51.412;5.436;2022-09-09T02:02:07;100573.44;;;13.96;83.23
73981;BME280;62348;51.412;5.436;2022-09-09T02:04:47;100570.72;;;13.96;83.16
73981;BME280;62348;51.412;5.436;2022-09-09T02:09:47;100571.84;;;13.95;83.54
73981;BME280;62348;51.412;5.436;2022-09-09T02:12:18;100574.03;;;13.93;83.58
73981;BME280;62348;51.412;5.436;2022-09-09T02:14:52;100568.91;;;13.91;83.80
73981;BME280;62348;51.412;5.436;2022-09-09T02:17:31;100581.38;;;13.92;83.78
73981;BME280;62348;51.412;5.436;2022-09-09T02:20:05;100578.41;;;13.89;83.73
73981;BME280;62348;51.412;5.436;2022-09-09T02:22:33;100578.66;;;13.92;84.13
73981;BME280;62348;51.412;5.436;2022-09-09T02:25:01;100570.22;;;13.94;83.91
73981;BME280;62348;51.412;5.436;2022-09-09T02:27:28;100568.38;;;13.89;84.26
73981;BME280;62348;51.412;5.436;2022-09-09T02:29:56;100579.53;;;13.88;84.04
73981;BME280;62348;51.412;5.436;2022-09-09T02:32:25;100574.09;;;13.88;84.29
73981;BME280;62348;51.412;5.436;2022-09-09T02:34:58;100570.22;;;13.94;84.29
73981;BME280;62348;51.412;5.436;2022-09-09T02:37:28;100569.97;;;13.90;84.38
73981;BME280;62348;51.412;5.436;2022-09-09T02:39:56;100560.50;;;13.88;84.41
73981;BME280;62348;51.412;5.436;2022-09-09T02:42:22;100563.78;;;13.84;84.50
73981;BME280;62348;51.412;5.436;2022-09-09T02:44:49;100558.88;;;13.86;84.63
73981;BME280;62348;51.412;5.436;2022-09-09T02:47:27;100570.50;;;13.92;84.21
73981;BME280;62348;51.412;5.436;2022-09-09T02:50:15;100561.78;;;13.95;83.93
73981;BME280;62348;51.412;5.436;2022-09-09T02:53:12;100565.81;;;13.98;83.40
73981;BME280;62348;51.412;5.436;2022-09-09T02:55:48;100565.28;;;13.96;83.91
73981;BME280;62348;51.412;5.436;2022-09-09T02:58:17;100566.75;;;13.88;84.04
73981;BME280;62348;51.412;5.436;2022-09-09T03:00:47;100575.13;;;13.92;84.20
73981;BME280;62348;51.412;5.436;2022-09-09T03:03:13;100570.50;;;13.92;83.94
73981;BME280;62348;51.412;5.436;2022-09-09T03:05:42;100571.09;;;13.89;84.37
73981;BME280;62348;51.412;5.436;2022-09-09T03:08:08;100562.34;;;13.92;84.39
73981;BME280;62348;51.412;5.436;2022-09-09T03:10:34;100569.97;;;13.90;84.35
73981;BME280;62348;51.412;5.436;2022-09-09T03:13:00;100565.91;;;13.93;84.51
73981;BME280;62348;51.412;5.436;2022-09-09T03:15:25;100563.69;;;13.95;84.38
73981;BME280;62348;51.412;5.436;2022-09-09T03:17:54;100573.72;;;13.94;84.40
73981;BME280;62348;51.412;5.436;2022-09-09T03:20:20;100572.38;;;13.97;84.36
73981;BME280;62348;51.412;5.436;2022-09-09T03:22:45;100575.94;;;13.92;84.58
73981;BME280;62348;51.412;5.436;2022-09-09T03:25:11;100573.97;;;13.98;84.42
73981;BME280;62348;51.412;5.436;2022-09-09T03:27:36;100583.53;;;13.95;84.10
73981;BME280;62348;51.412;5.436;2022-09-09T03:30:02;100580.28;;;13.93;84.13
73981;BME280;62348;51.412;5.436;2022-09-09T03:32:28;100574.34;;;13.91;84.38
73981;BME280;62348;51.412;5.436;2022-09-09T03:34:53;100575.94;;;13.92;84.20
73981;BME280;62348;51.412;5.436;2022-09-09T03:37:19;100579.53;;;13.88;84.17
73981;BME280;62348;51.412;5.436;2022-09-09T03:39:45;100572.47;;;13.86;84.60
73981;BME280;62348;51.412;5.436;2022-09-09T03:42:14;100579.81;;;13.86;84.59
73981;BME280;62348;51.412;5.436;2022-09-09T03:44:44;100580.09;;;13.84;84.40
73981;BME280;62348;51.412;5.436;2022-09-09T03:47:10;100584.16;;;13.87;84.87
73981;BME280;62348;51.412;5.436;2022-09-09T03:49:35;100575.19;;;13.86;84.69
73981;BME280;62348;51.412;5.436;2022-09-09T03:52:01;100586.06;;;13.86;85.18
73981;BME280;62348;51.412;5.436;2022-09-09T03:54:26;100580.63;;;13.86;85.20
73981;BME280;62348;51.412;5.436;2022-09-09T03:56:52;100581.69;;;13.91;85.14
73981;BME280;62348;51.412;5.436;2022-09-09T03:59:17;100575.13;;;13.92;85.22
73981;BME280;62348;51.412;5.436;2022-09-09T04:01:43;100576.44;;;13.94;84.86
73981;BME280;62348;51.412;5.436;2022-09-09T04:04:09;100575.66;;;13.94;84.95
73981;BME280;62348;51.412;5.436;2022-09-09T04:06:34;100574.28;;;13.96;85.13
73981;BME280;62348;51.412;5.436;2022-09-09T04:09:00;100579.41;;;13.98;85.48
73981;BME280;62348;51.412;5.436;2022-09-09T04:11:27;100575.09;;;13.97;85.57
73981;BME280;62348;51.412;5.436;2022-09-09T04:13:53;100567.72;;;13.97;85.60
73981;BME280;62348;51.412;5.436;2022-09-09T04:16:18;100574.47;;;14.00;85.57
73981;BME280;62348;51.412;5.436;2022-09-09T04:18:44;100565.53;;;13.99;85.43
73981;BME280;62348;51.412;5.436;2022-09-09T04:21:10;100562.25;;;14.02;85.60
73981;BME280;62348;51.412;5.436;2022-09-09T04:23:37;100570.44;;;13.97;85.93
73981;BME280;62348;51.412;5.436;2022-09-09T04:26:03;100565.75;;;14.03;85.82
73981;BME280;62348;51.412;5.436;2022-09-09T04:28:31;100567.38;;;14.04;86.01
73981;BME280;62348;51.412;5.436;2022-09-09T04:31:04;100558.13;;;14.05;85.88
73981;BME280;62348;51.412;5.436;2022-09-09T04:33:29;100553.28;;;14.02;86.16
73981;BME280;62348;51.412;5.436;2022-09-09T04:35:56;100556.19;;;14.05;86.08
73981;BME280;62348;51.412;5.436;2022-09-09T04:38:22;100553.19;;;14.07;86.25
73981;BME280;62348;51.412;5.436;2022-09-09T04:40:49;100556.81;;;14.02;85.94
73981;BME280;62348;51.412;5.436;2022-09-09T04:43:15;100560.03;;;14.04;85.96
73981;BME280;62348;51.412;5.436;2022-09-09T04:45:41;100556.53;;;14.04;85.92
73981;BME280;62348;51.412;5.436;2022-09-09T04:48:07;100549.72;;;14.01;86.20
73981;BME280;62348;51.412;5.436;2022-09-09T04:50:33;100554.38;;;14.01;86.15
73981;BME280;62348;51.412;5.436;2022-09-09T04:53:02;100550.75;;;14.05;86.23
73981;BME280;62348;51.412;5.436;2022-09-09T04:55:29;100550.47;;;14.07;86.13
73981;BME280;62348;51.412;5.436;2022-09-09T04:57:55;100547.25;;;14.05;86.02
73981;BME280;62348;51.412;5.436;2022-09-09T05:00:22;100544.06;;;13.98;86.26
73981;BME280;62348;51.412;5.436;2022-09-09T05:02:47;100545.13;;;14.02;86.14
73981;BME280;62348;51.412;5.436;2022-09-09T05:05:13;100544.28;;;14.01;86.22
73981;BME280;62348;51.412;5.436;2022-09-09T05:07:38;100540.72;;;14.06;86.03
73981;BME280;62348;51.412;5.436;2022-09-09T05:10:04;100544.53;;;14.05;85.88
73981;BME280;62348;51.412;5.436;2022-09-09T05:12:31;100539.88;;;14.05;85.85
73981;BME280;62348;51.412;5.436;2022-09-09T05:14:56;100533.66;;;14.05;85.79
73981;BME280;62348;51.412;5.436;2022-09-09T05:17:22;100539.69;;;14.02;85.84
73981;BME280;62348;51.412;5.436;2022-09-09T05:19:47;100541.28;;;14.03;85.86
73981;BME280;62348;51.412;5.436;2022-09-09T05:22:13;100539.88;;;14.05;85.84
73981;BME280;62348;51.412;5.436;2022-09-09T05:24:43;100540.78;;;14.01;85.83
73981;BME280;62348;51.412;5.436;2022-09-09T05:27:09;100540.22;;;14.04;86.00
73981;BME280;62348;51.412;5.436;2022-09-09T05:29:37;100542.09;;;14.03;86.19
73981;BME280;62348;51.412;5.436;2022-09-09T05:32:03;100535.06;;;14.02;86.05
73981;BME280;62348;51.412;5.436;2022-09-09T05:34:29;100549.97;;;14.05;85.95
73981;BME280;62348;51.412;5.436;2022-09-09T05:36:54;100542.41;;;14.02;86.15
73981;BME280;62348;51.412;5.436;2022-09-09T05:39:20;100545.34;;;14.05;86.33
73981;BME280;62348;51.412;5.436;2022-09-09T05:41:45;100551.09;;;14.04;86.38
73981;BME280;62348;51.412;5.436;2022-09-09T05:44:11;100554.09;;;14.02;86.29
73981;BME280;62348;51.412;5.436;2022-09-09T05:46:36;100552.97;;;14.03;86.13
73981;BME280;62348;51.412;5.436;2022-09-09T05:49:02;100557.56;;;14.08;86.30
73981;BME280;62348;51.412;5.436;2022-09-09T05:51:30;100558.88;;;14.11;86.24
73981;BME280;62348;51.412;5.436;2022-09-09T05:53:56;100561.31;;;14.12;86.46
73981;BME280;62348;51.412;5.436;2022-09-09T05:56:25;100558.59;;;14.12;86.03
73981;BME280;62348;51.412;5.436;2022-09-09T05:58:52;100569.16;;;14.14;86.45
73981;BME280;62348;51.412;5.436;2022-09-09T06:01:24;100567.44;;;14.23;86.38
73981;BME280;62348;51.412;5.436;2022-09-09T06:03:51;100560.53;;;14.31;86.55
73981;BME280;62348;51.412;5.436;2022-09-09T06:06:30;100560.81;;;14.29;86.33
73981;BME280;62348;51.412;5.436;2022-09-09T06:08:56;100561.63;;;14.30;86.62
73981;BME280;62348;51.412;5.436;2022-09-09T06:11:27;100561.56;;;14.35;86.45
73981;BME280;62348;51.412;5.436;2022-09-09T06:13:52;100556.56;;;14.42;86.61
73981;BME280;62348;51.412;5.436;2022-09-09T06:16:21;100553.97;;;14.51;86.19
73981;BME280;62348;51.412;5.436;2022-09-09T06:18:49;100560.63;;;14.63;86.32
73981;BME280;62348;51.412;5.436;2022-09-09T06:21:16;100556.16;;;14.73;85.94
73981;BME280;62348;51.412;5.436;2022-09-09T06:23:42;100562.44;;;14.87;85.84
73981;BME280;62348;51.412;5.436;2022-09-09T06:26:15;100557.66;;;14.98;85.05
73981;BME280;62348;51.412;5.436;2022-09-09T06:28:42;100559.19;;;15.04;84.72
73981;BME280;62348;51.412;5.436;2022-09-09T06:31:10;100553.22;;;15.02;83.74
73981;BME280;62348;51.412;5.436;2022-09-09T06:33:40;100559.56;;;14.97;84.60
73981;BME280;62348;51.412;5.436;2022-09-09T06:36:11;100553.22;;;15.02;83.80
73981;BME280;62348;51.412;5.436;2022-09-09T06:38:37;100548.56;;;15.21;83.37
73981;BME280;62348;51.412;5.436;2022-09-09T06:41:03;100550.69;;;15.38;82.10
73981;BME280;62348;51.412;5.436;2022-09-09T06:43:28;100547.00;;;15.48;82.95
73981;BME280;62348;51.412;5.436;2022-09-09T06:45:59;100542.53;;;15.52;82.23
73981;BME280;62348;51.412;5.436;2022-09-09T06:48:26;100544.97;;;15.68;82.45
73981;BME280;62348;51.412;5.436;2022-09-09T06:51:08;100544.19;;;15.95;81.83
73981;BME280;62348;51.412;5.436;2022-09-09T06:53:36;100550.72;;;16.22;79.81
73981;BME280;62348;51.412;5.436;2022-09-09T06:56:03;100544.16;;;16.59;78.35
73981;BME280;62348;51.412;5.436;2022-09-09T06:58:42;100550.09;;;16.97;76.95
73981;BME280;62348;51.412;5.436;2022-09-09T07:01:34;100546.09;;;17.26;76.54
73981;BME280;62348;51.412;5.436;2022-09-09T07:03:58;100550.09;;;17.51;74.81
73981;BME280;62348;51.412;5.436;2022-09-09T07:06:44;100554.66;;;17.65;76.50
73981;BME280;62348;51.412;5.436;2022-09-09T07:09:12;100550.06;;;17.43;74.05
73981;BME280;62348;51.412;5.436;2022-09-09T07:11:41;100552.50;;;17.22;75.45
73981;BME280;62348;51.412;5.436;2022-09-09T07:14:07;100548.63;;;17.14;76.61
73981;BME280;62348;51.412;5.436;2022-09-09T07:16:33;100535.72;;;17.06;76.58
73981;BME280;62348;51.412;5.436;2022-09-09T07:19:03;100553.66;;;16.98;75.78
73981;BME280;62348;51.412;5.436;2022-09-09T07:21:30;100544.16;;;16.95;76.20
73981;BME280;62348;51.412;5.436;2022-09-09T07:23:56;100547.22;;;16.80;77.54
73981;BME280;62348;51.412;5.436;2022-09-09T07:26:24;100545.47;;;16.62;76.76
73981;BME280;62348;51.412;5.436;2022-09-09T07:28:50;100539.75;;;16.49;77.23
73981;BME280;62348;51.412;5.436;2022-09-09T07:31:26;100538.97;;;16.35;77.57
73981;BME280;62348;51.412;5.436;2022-09-09T07:33:51;100540.81;;;16.26;78.38
73981;BME280;62348;51.412;5.436;2022-09-09T07:38:49;100551.44;;;16.13;78.33
73981;BME280;62348;51.412;5.436;2022-09-09T07:41:28;100549.13;;;16.07;79.39
73981;BME280;62348;51.412;5.436;2022-09-09T07:43:55;100550.66;;;15.99;79.22
73981;BME280;62348;51.412;5.436;2022-09-09T07:46:23;100542.59;;;15.94;79.34
73981;BME280;62348;51.412;5.436;2022-09-09T07:48:53;100554.78;;;15.96;79.26
73981;BME280;62348;51.412;5.436;2022-09-09T07:51:27;100550.97;;;15.97;79.54
73981;BME280;62348;51.412;5.436;2022-09-09T07:53:59;100547.91;;;15.99;78.86
73981;BME280;62348;51.412;5.436;2022-09-09T07:56:26;100549.53;;;16.00;79.35
73981;BME280;62348;51.412;5.436;2022-09-09T07:58:53;100547.13;;;15.98;78.03
73981;BME280;62348;51.412;5.436;2022-09-09T08:03:47;100561.25;;;16.00;79.18
73981;BME280;62348;51.412;5.436;2022-09-09T08:06:16;100549.53;;;16.00;79.42
73981;BME280;62348;51.412;5.436;2022-09-09T08:08:42;100562.47;;;16.22;79.52
73981;BME280;62348;51.412;5.436;2022-09-09T08:11:11;100553.25;;;16.18;79.23
73981;BME280;62348;51.412;5.436;2022-09-09T08:13:37;100550.28;;;16.42;78.75
73981;BME280;62348;51.412;5.436;2022-09-09T08:16:08;100551.16;;;16.51;78.31
73981;BME280;62348;51.412;5.436;2022-09-09T08:18:34;100561.59;;;16.49;76.24
73981;BME280;62348;51.412;5.436;2022-09-09T08:21:11;100559.34;;;16.51;76.67
73981;BME280;62348;51.412;5.436;2022-09-09T08:23:38;100552.09;;;16.47;76.15
73981;BME280;62348;51.412;5.436;2022-09-09T08:26:15;100544.53;;;16.44;74.60
73981;BME280;62348;51.412;5.436;2022-09-09T08:28:42;100551.41;;;16.41;76.39
73981;BME280;62348;51.412;5.436;2022-09-09T08:31:11;100560.19;;;16.38;77.17
73981;BME280;62348;51.412;5.436;2022-09-09T08:33:37;100555.84;;;16.37;76.39
73981;BME280;62348;51.412;5.436;2022-09-09T08:36:05;100560.50;;;16.36;76.14
73981;BME280;62348;51.412;5.436;2022-09-09T08:38:30;100553.75;;;16.34;76.81
73981;BME280;62348;51.412;5.436;2022-09-09T08:41:07;100559.00;;;16.30;76.96
73981;BME280;62348;51.412;5.436;2022-09-09T08:43:36;100559.31;;;16.29;77.99
73981;BME280;62348;51.412;5.436;2022-09-09T08:46:17;100560.31;;;16.33;77.06
73981;BME280;62348;51.412;5.436;2022-09-09T08:49:10;100558.81;;;16.27;77.19
73981;BME280;62348;51.412;5.436;2022-09-09T08:51:37;100561.84;;;16.25;76.31
73981;BME280;62348;51.412;5.436;2022-09-09T08:54:04;100561.84;;;16.25;77.09
73981;BME280;62348;51.412;5.436;2022-09-09T08:56:31;100568.09;;;16.26;76.18
73981;BME280;62348;51.412;5.436;2022-09-09T08:58:59;100571.94;;;16.25;76.72
73981;BME280;62348;51.412;5.436;2022-09-09T09:01:33;100567.59;;;16.24;76.79
73981;BME280;62348;51.412;5.436;2022-09-09T09:04:33;100580.13;;;16.25;76.74
73981;BME280;62348;51.412;5.436;2022-09-09T09:10:39;100580.72;;;16.22;76.56
73981;BME280;62348;51.412;5.436;2022-09-09T09:12:43;100591.34;;;16.23;75.72
73981;BME280;62348;51.412;5.436;2022-09-09T09:15:36;100584.16;;;16.27;76.94
73981;BME280;62348;51.412;5.436;2022-09-09T09:18:04;100596.19;;;16.26;76.94
73981;BME280;62348;51.412;5.436;2022-09-09T09:20:50;100597.50;;;16.29;76.75
73981;BME280;62348;51.412;5.436;2022-09-09T09:23:25;100587.72;;;16.28;77.02
73981;BME280;62348;51.412;5.436;2022-09-09T09:25:56;100597.09;;;16.22;77.32
73981;BME280;62348;51.412;5.436;2022-09-09T09:28:26;100596.00;;;16.23;76.99
73981;BME280;62348;51.412;5.436;2022-09-09T09:30:58;100586.38;;;16.25;76.42
73981;BME280;62348;51.412;5.436;2022-09-09T09:33:49;100589.22;;;16.34;76.96
73981;BME280;62348;51.412;5.436;2022-09-09T09:36:15;100589.41;;;16.37;75.75
73981;BME280;62348;51.412;5.436;2022-09-09T09:38:59;100589.19;;;16.48;76.75
73981;BME280;62348;51.412;5.436;2022-09-09T09:41:35;100592.00;;;16.56;76.05
73981;BME280;62348;51.412;5.436;2022-09-09T09:44:02;100578.22;;;16.62;74.57
73981;BME280;62348;51.412;5.436;2022-09-09T09:46:28;100584.81;;;16.61;75.41
73981;BME280;62348;51.412;5.436;2022-09-09T09:51:24;100596.56;;;16.47;76.71
73981;BME280;62348;51.412;5.436;2022-09-09T09:53:50;100587.97;;;16.40;77.31
73981;BME280;62348;51.412;5.436;2022-09-09T09:56:26;100599.19;;;16.38;77.80
73981;BME280;62348;51.412;5.436;2022-09-09T09:58:53;100589.50;;;16.32;78.37
73981;BME280;62348;51.412;5.436;2022-09-09T10:01:25;100590.31;;;16.33;78.63
73981;BME280;62348;51.412;5.436;2022-09-09T10:04:02;100591.25;;;16.28;78.39
73981;BME280;62348;51.412;5.436;2022-09-09T10:06:38;100585.59;;;16.25;78.14
73981;BME280;62348;51.412;5.436;2022-09-09T10:09:24;100583.16;;;16.23;78.27
73981;BME280;62348;51.412;5.436;2022-09-09T10:11:57;100597.09;;;16.22;78.62
73981;BME280;62348;51.412;5.436;2022-09-09T10:14:45;100598.81;;;16.17;79.16
73981;BME280;62348;51.412;5.436;2022-09-09T10:17:35;100593.78;;;16.11;79.60
73981;BME280;62348;51.412;5.436;2022-09-09T10:31:46;100610.63;;;15.85;81.50
73981;BME280;62348;51.412;5.436;2022-09-09T10:35:12;100622.56;;;15.89;80.93
73981;BME280;62348;51.412;5.436;2022-09-09T10:40:33;100616.19;;;15.80;81.60
73981;BME280;62348;51.412;5.436;2022-09-09T10:51:26;100618.63;;;15.95;82.99
73981;BME280;62348;51.412;5.436;2022-09-09T10:54:15;100607.59;;;16.00;82.67
73981;BME280;62348;51.412;5.436;2022-09-09T10:56:49;100603.38;;;16.08;83.69
73981;BME280;62348;51.412;5.436;2022-09-09T10:59:24;100606.28;;;16.12;84.12
73981;BME280;62348;51.412;5.436;2022-09-09T11:04:38;100598.22;;;16.20;83.83
73981;BME280;62348;51.412;5.436;2022-09-09T11:07:08;100601.84;;;16.30;84.42
73981;BME280;62348;51.412;5.436;2022-09-09T11:09:41;100602.22;;;16.37;83.87
73981;BME280;62348;51.412;5.436;2022-09-09T11:12:13;100600.41;;;16.46;84.20
73981;BME280;62348;51.412;5.436;2022-09-09T11:17:47;100611.09;;;16.56;82.90
73981;BME280;62348;51.412;5.436;2022-09-09T11:20:15;100608.06;;;16.58;82.92
73981;BME280;62348;51.412;5.436;2022-09-09T11:23:56;100603.97;;;16.69;81.98
73981;BME280;62348;51.412;5.436;2022-09-09T11:26:00;100606.84;;;16.64;82.04
73981;BME280;62348;51.412;5.436;2022-09-09T11:32:00;100594.88;;;16.74;82.07
73981;BME280;62348;51.412;5.436;2022-09-09T11:40:23;100598.72;;;16.73;81.89
73981;BME280;62348;51.412;5.436;2022-09-09T11:43:02;100606.53;;;16.66;80.98
73981;BME280;62348;51.412;5.436;2022-09-09T11:45:29;100606.44;;;16.57;80.92
73981;BME280;62348;51.412;5.436;2022-09-09T11:47:57;100610.91;;;16.53;81.13
73981;BME280;62348;51.412;5.436;2022-09-09T11:52:49;100602.41;;;16.54;82.23
73981;BME280;62348;51.412;5.436;2022-09-09T11:55:29;100600.78;;;16.53;80.75
73981;BME280;62348;51.412;5.436;2022-09-09T11:58:02;100600.19;;;16.56;81.14
73981;BME280;62348;51.412;5.436;2022-09-09T12:00:41;100598.94;;;16.63;80.88
73981;BME280;62348;51.412;5.436;2022-09-09T12:03:41;100600.75;;;16.67;79.92
73981;BME280;62348;51.412;5.436;2022-09-09T12:08:37;100602.63;;;16.81;81.21
73981;BME280;62348;51.412;5.436;2022-09-09T12:11:06;100588.47;;;16.92;80.48
73981;BME280;62348;51.412;5.436;2022-09-09T12:13:32;100586.09;;;17.00;80.09
73981;BME280;62348;51.412;5.436;2022-09-09T12:15:58;100600.03;;;17.12;81.00
73981;BME280;62348;51.412;5.436;2022-09-09T12:18:44;100586.25;;;17.17;79.98
73981;BME280;62348;51.412;5.436;2022-09-09T12:23:56;100589.66;;;17.23;78.90
73981;BME280;62348;51.412;5.436;2022-09-09T12:26:29;100581.63;;;17.26;78.47
73981;BME280;62348;51.412;5.436;2022-09-09T12:34:11;100579.66;;;17.18;78.02
73981;BME280;62348;51.412;5.436;2022-09-09T12:36:40;100574.81;;;17.15;77.64
73981;BME280;62348;51.412;5.436;2022-09-09T12:39:18;100577.03;;;17.13;77.99
73981;BME280;62348;51.412;5.436;2022-09-09T12:41:54;100576.34;;;17.07;77.36
73981;BME280;62348;51.412;5.436;2022-09-09T12:44:22;100570.41;;;17.05;77.80
73981;BME280;62348;51.412;5.436;2022-09-09T12:46:48;100569.00;;;17.08;78.00
73981;BME280;62348;51.412;5.436;2022-09-09T12:49:32;100562.28;;;17.14;78.07
73981;BME280;62348;51.412;5.436;2022-09-09T12:52:06;100562.28;;;17.14;77.69
73981;BME280;62348;51.412;5.436;2022-09-09T12:54:35;100568.22;;;17.16;77.46
73981;BME280;62348;51.412;5.436;2022-09-09T12:57:02;100561.00;;;17.20;76.22
73981;BME280;62348;51.412;5.436;2022-09-09T12:59:37;100571.94;;;17.20;77.13
73981;BME280;62348;51.412;5.436;2022-09-09T13:02:16;100560.91;;;17.25;76.72
73981;BME280;62348;51.412;5.436;2022-09-09T13:04:42;100561.25;;;17.32;76.98
73981;BME280;62348;51.412;5.436;2022-09-09T13:07:09;100569.00;;;17.39;75.66
73981;BME280;62348;51.412;5.436;2022-09-09T13:09:35;100560.69;;;17.44;74.75
73981;BME280;62348;51.412;5.436;2022-09-09T13:12:01;100558.94;;;17.48;75.12
73981;BME280;62348;51.412;5.436;2022-09-09T13:14:35;100556.91;;;17.63;75.51
73981;BME280;62348;51.412;5.436;2022-09-09T13:17:06;100555.81;;;17.72;75.83
73981;BME280;62348;51.412;5.436;2022-09-09T13:19:37;100548.59;;;17.76;73.42
73981;BME280;62348;51.412;5.436;2022-09-09T13:22:34;100558.72;;;17.76;74.45
73981;BME280;62348;51.412;5.436;2022-09-09T13:25:20;100554.69;;;17.73;75.01
73981;BME280;62348;51.412;5.436;2022-09-09T13:28:03;100560.13;;;17.65;75.32
73981;BME280;62348;51.412;5.436;2022-09-09T13:30:34;100553.50;;;17.57;76.31
73981;BME280;62348;51.412;5.436;2022-09-09T13:36:04;100549.25;;;17.42;77.45
73981;BME280;62348;51.412;5.436;2022-09-09T13:38:54;100548.59;;;17.45;77.24
73981;BME280;62348;51.412;5.436;2022-09-09T13:41:27;100545.06;;;17.45;77.40
73981;BME280;62348;51.412;5.436;2022-09-09T13:43:55;100550.09;;;17.51;78.08
73981;BME280;62348;51.412;5.436;2022-09-09T13:51:39;100547.56;;;17.64;74.82
73981;BME280;62348;51.412;5.436;2022-09-09T13:54:06;100560.13;;;17.65;75.01
73981;BME280;62348;51.412;5.436;2022-09-09T13:56:34;100542.47;;;17.71;74.45
73981;BME280;62348;51.412;5.436;2022-09-09T13:59:00;100541.38;;;17.81;74.74
73981;BME280;62348;51.412;5.436;2022-09-09T14:01:27;100544.91;;;17.81;74.76
73981;BME280;62348;51.412;5.436;2022-09-09T14:03:53;100546.34;;;17.79;72.05
73981;BME280;62348;51.412;5.436;2022-09-09T14:06:18;100550.84;;;17.74;73.97
73981;BME280;62348;51.412;5.436;2022-09-09T14:08:44;100546.47;;;17.73;73.11
73981;BME280;62348;51.412;5.436;2022-09-09T14:11:12;100537.78;;;17.71;73.69
73981;BME280;62348;51.412;5.436;2022-09-09T14:13:39;100545.50;;;17.69;74.34
73981;BME280;62348;51.412;5.436;2022-09-09T14:16:05;100550.47;;;17.67;74.17
73981;BME280;62348;51.412;5.436;2022-09-09T14:18:30;100549.69;;;17.67;74.27
73981;BME280;62348;51.412;5.436;2022-09-09T14:20:56;100550.34;;;17.72;72.54
73981;BME280;62348;51.412;5.436;2022-09-09T14:23:23;100544.91;;;17.81;73.81
73981;BME280;62348;51.412;5.436;2022-09-09T14:25:50;100556.69;;;17.90;72.98
73981;BME280;62348;51.412;5.436;2022-09-09T14:28:15;100541.13;;;18.00;73.09
73981;BME280;62348;51.412;5.436;2022-09-09T14:30:42;100539.72;;;18.11;72.16
73981;BME280;62348;51.412;5.436;2022-09-09T14:33:11;100544.06;;;18.21;73.52
73981;BME280;62348;51.412;5.436;2022-09-09T14:35:37;100540.06;;;18.27;71.96
73981;BME280;62348;51.412;5.436;2022-09-09T14:38:04;100535.56;;;18.31;72.19
73981;BME280;62348;51.412;5.436;2022-09-09T14:40:30;100539.25;;;18.35;73.29
73981;BME280;62348;51.412;5.436;2022-09-09T14:42:55;100528.16;;;18.31;71.85
73981;BME280;62348;51.412;5.436;2022-09-09T14:45:22;100534.28;;;18.37;72.25
73981;BME280;62348;51.412;5.436;2022-09-09T14:47:50;100534.28;;;18.37;71.25
73981;BME280;62348;51.412;5.436;2022-09-09T14:50:16;100537.63;;;18.34;69.88
73981;BME280;62348;51.412;5.436;2022-09-09T14:52:41;100536.34;;;18.31;71.07
73981;BME280;62348;51.412;5.436;2022-09-09T14:55:07;100538.63;;;18.29;70.85